sensor_id;sensor_type;location;lat;lon;timestamp;P1;durP1;ratioP1;P2;durP2;ratioP2
64832;SDS011;51290;45.060;38.948;2023-04-06T00:02:16;13.85;;;3.17;;
64832;SDS011;51290;45.060;38.948;2023-04-06T00:04:42;3.17;;;2.60;;
64832;SDS011;51290;45.060;38.948;2023-04-06T00:07:08;6.18;;;3.28;;
64832;SDS011;51290;45.060;38.948;2023-04-06T00:09:34;5.45;;;2.80;;
64832;SDS011;51290;45.060;38.948;2023-04-06T00:12:00;4.90;;;3.25;;
64832;SDS011;51290;45.060;38.948;2023-04-06T00:14:26;6.82;;;3.33;;
64832;SDS011;51290;45.060;38.948;2023-04-06T00:16:52;3.60;;;2.50;;
64832;SDS011;51290;45.060;38.948;2023-04-06T00:19:18;5.80;;;2.80;;
64832;SDS011;51290;45.060;38.948;2023-04-06T00:21:44;6.25;;;3.00;;
64832;SDS011;51290;45.060;38.948;2023-04-06T00:24:10;4.53;;;2.67;;
64832;SDS011;51290;45.060;38.948;2023-04-06T00:26:36;5.28;;;3.15;;
64832;SDS011;51290;45.060;38.948;2023-04-06T00:29:03;6.80;;;2.90;;
64832;SDS011;51290;45.060;38.948;2023-04-06T00:31:29;6.60;;;3.13;;
64832;SDS011;51290;45.060;38.948;2023-04-06T00:33:55;9.90;;;4.43;;
64832;SDS011;51290;45.060;38.948;2023-04-06T00:36:21;6.93;;;4.25;;
64832;SDS011;51290;45.060;38.948;2023-04-06T00:38:47;8.00;;;3.63;;
64832;SDS011;51290;45.060;38.948;2023-04-06T00:41:13;7.60;;;3.83;;
64832;SDS011;51290;45.060;38.948;2023-04-06T00:43:39;7.47;;;3.35;;
64832;SDS011;51290;45.060;38.948;2023-04-06T00:46:05;6.80;;;3.22;;
64832;SDS011;51290;45.060;38.948;2023-04-06T00:48:31;10.38;;;4.35;;
64832;SDS011;51290;45.060;38.948;2023-04-06T00:50:58;7.60;;;3.78;;
64832;SDS011;51290;45.060;38.948;2023-04-06T00:53:24;12.57;;;4.50;;
64832;SDS011;51290;45.060;38.948;2023-04-06T00:55:52;6.45;;;3.78;;
64832;SDS011;51290;45.060;38.948;2023-04-06T00:58:19;6.43;;;3.67;;
64832;SDS011;51290;45.060;38.948;2023-04-06T01:00:51;7.03;;;4.22;;
64832;SDS011;51290;45.060;38.948;2023-04-06T01:03:20;9.27;;;4.50;;
64832;SDS011;51290;45.060;38.948;2023-04-06T01:05:46;8.32;;;3.85;;
64832;SDS011;51290;45.060;38.948;2023-04-06T01:08:23;6.88;;;3.42;;
64832;SDS011;51290;45.060;38.948;2023-04-06T01:10:55;17.25;;;5.57;;
64832;SDS011;51290;45.060;38.948;2023-04-06T01:13:27;5.63;;;3.95;;
64832;SDS011;51290;45.060;38.948;2023-04-06T01:15:57;12.07;;;4.57;;
64832;SDS011;51290;45.060;38.948;2023-04-06T01:18:30;6.82;;;3.65;;
64832;SDS011;51290;45.060;38.948;2023-04-06T01:24:01;5.80;;;4.00;;
64832;SDS011;51290;45.060;38.948;2023-04-06T01:26:40;5.88;;;3.67;;
64832;SDS011;51290;45.060;38.948;2023-04-06T01:29:08;10.25;;;4.20;;
64832;SDS011;51290;45.060;38.948;2023-04-06T01:31:34;8.32;;;4.43;;
64832;SDS011;51290;45.060;38.948;2023-04-06T01:34:00;6.18;;;3.72;;
64832;SDS011;51290;45.060;38.948;2023-04-06T01:36:26;6.20;;;3.55;;
64832;SDS011;51290;45.060;38.948;2023-04-06T01:39:05;8.00;;;4.53;;
64832;SDS011;51290;45.060;38.948;2023-04-06T01:41:35;5.90;;;3.88;;
64832;SDS011;51290;45.060;38.948;2023-04-06T01:44:01;14.02;;;3.58;;
64832;SDS011;51290;45.060;38.948;2023-04-06T01:46:29;9.27;;;3.30;;
64832;SDS011;51290;45.060;38.948;2023-04-06T01:48:56;11.20;;;4.38;;
64832;SDS011;51290;45.060;38.948;2023-04-06T01:51:39;7.30;;;4.05;;
64832;SDS011;51290;45.060;38.948;2023-04-06T01:54:09;9.80;;;4.38;;
64832;SDS011;51290;45.060;38.948;2023-04-06T01:56:46;8.50;;;4.05;;
64832;SDS011;51290;45.060;38.948;2023-04-06T01:59:29;4.80;;;3.38;;
64832;SDS011;51290;45.060;38.948;2023-04-06T02:01:57;8.15;;;4.30;;
64832;SDS011;51290;45.060;38.948;2023-04-06T02:04:25;6.50;;;3.55;;
64832;SDS011;51290;45.060;38.948;2023-04-06T02:06:59;8.80;;;3.45;;
64832;SDS011;51290;45.060;38.948;2023-04-06T02:09:28;4.88;;;3.75;;
64832;SDS011;51290;45.060;38.948;2023-04-06T02:11:55;6.30;;;3.65;;
64832;SDS011;51290;45.060;38.948;2023-04-06T02:14:23;6.93;;;3.58;;
64832;SDS011;51290;45.060;38.948;2023-04-06T02:16:53;6.72;;;3.55;;
64832;SDS011;51290;45.060;38.948;2023-04-06T02:19:19;7.60;;;3.33;;
64832;SDS011;51290;45.060;38.948;2023-04-06T02:21:45;6.72;;;3.35;;
64832;SDS011;51290;45.060;38.948;2023-04-06T02:24:11;6.97;;;3.15;;
64832;SDS011;51290;45.060;38.948;2023-04-06T02:26:37;6.20;;;3.50;;
64832;SDS011;51290;45.060;38.948;2023-04-06T02:29:03;4.70;;;3.25;;
64832;SDS011;51290;45.060;38.948;2023-04-06T02:31:31;5.95;;;3.88;;
64832;SDS011;51290;45.060;38.948;2023-04-06T02:33:58;6.60;;;3.42;;
64832;SDS011;51290;45.060;38.948;2023-04-06T02:36:25;4.88;;;2.85;;
64832;SDS011;51290;45.060;38.948;2023-04-06T02:38:51;4.70;;;3.13;;
64832;SDS011;51290;45.060;38.948;2023-04-06T02:41:17;8.93;;;4.10;;
64832;SDS011;51290;45.060;38.948;2023-04-06T02:43:44;5.82;;;3.90;;
64832;SDS011;51290;45.060;38.948;2023-04-06T02:46:18;9.15;;;4.10;;
64832;SDS011;51290;45.060;38.948;2023-04-06T02:48:44;10.73;;;4.30;;
64832;SDS011;51290;45.060;38.948;2023-04-06T02:51:10;7.70;;;3.35;;
64832;SDS011;51290;45.060;38.948;2023-04-06T02:53:36;7.32;;;3.97;;
64832;SDS011;51290;45.060;38.948;2023-04-06T02:56:03;5.05;;;3.15;;
64832;SDS011;51290;45.060;38.948;2023-04-06T02:58:40;6.32;;;3.70;;
64832;SDS011;51290;45.060;38.948;2023-04-06T03:01:06;5.63;;;3.28;;
64832;SDS011;51290;45.060;38.948;2023-04-06T03:03:33;5.57;;;3.47;;
64832;SDS011;51290;45.060;38.948;2023-04-06T03:06:01;8.35;;;4.40;;
64832;SDS011;51290;45.060;38.948;2023-04-06T03:08:30;5.90;;;3.75;;
64832;SDS011;51290;45.060;38.948;2023-04-06T03:10:56;7.38;;;4.05;;
64832;SDS011;51290;45.060;38.948;2023-04-06T03:13:31;8.77;;;3.67;;
64832;SDS011;51290;45.060;38.948;2023-04-06T03:15:57;5.10;;;3.05;;
64832;SDS011;51290;45.060;38.948;2023-04-06T03:18:24;6.72;;;4.05;;
64832;SDS011;51290;45.060;38.948;2023-04-06T03:20:52;7.43;;;3.67;;
64832;SDS011;51290;45.060;38.948;2023-04-06T03:23:24;5.63;;;3.55;;
64832;SDS011;51290;45.060;38.948;2023-04-06T03:25:55;5.85;;;3.50;;
64832;SDS011;51290;45.060;38.948;2023-04-06T03:28:21;7.25;;;4.00;;
64832;SDS011;51290;45.060;38.948;2023-04-06T03:31:06;7.22;;;4.38;;
64832;SDS011;51290;45.060;38.948;2023-04-06T03:33:44;9.65;;;4.80;;
64832;SDS011;51290;45.060;38.948;2023-04-06T03:36:17;17.00;;;4.85;;
64832;SDS011;51290;45.060;38.948;2023-04-06T03:38:43;11.30;;;5.38;;
64832;SDS011;51290;45.060;38.948;2023-04-06T03:41:12;8.18;;;3.70;;
64832;SDS011;51290;45.060;38.948;2023-04-06T03:43:41;7.68;;;3.97;;
64832;SDS011;51290;45.060;38.948;2023-04-06T03:46:07;8.65;;;4.30;;
64832;SDS011;51290;45.060;38.948;2023-04-06T03:48:33;6.28;;;4.30;;
64832;SDS011;51290;45.060;38.948;2023-04-06T03:51:03;9.93;;;4.65;;
64832;SDS011;51290;45.060;38.948;2023-04-06T03:53:29;11.52;;;4.43;;
64832;SDS011;51290;45.060;38.948;2023-04-06T03:55:55;6.72;;;4.40;;
64832;SDS011;51290;45.060;38.948;2023-04-06T03:58:21;13.27;;;4.75;;
64832;SDS011;51290;45.060;38.948;2023-04-06T04:00:47;8.63;;;4.65;;
64832;SDS011;51290;45.060;38.948;2023-04-06T04:03:13;8.82;;;4.47;;
64832;SDS011;51290;45.060;38.948;2023-04-06T04:05:41;10.90;;;4.45;;
64832;SDS011;51290;45.060;38.948;2023-04-06T04:08:10;14.25;;;4.28;;
64832;SDS011;51290;45.060;38.948;2023-04-06T04:10:35;10.10;;;4.20;;
64832;SDS011;51290;45.060;38.948;2023-04-06T04:13:02;6.90;;;4.70;;
64832;SDS011;51290;45.060;38.948;2023-04-06T04:15:28;10.27;;;5.72;;
64832;SDS011;51290;45.060;38.948;2023-04-06T04:17:54;11.10;;;4.97;;
64832;SDS011;51290;45.060;38.948;2023-04-06T04:20:20;10.45;;;5.45;;
64832;SDS011;51290;45.060;38.948;2023-04-06T04:22:46;15.48;;;5.35;;
64832;SDS011;51290;45.060;38.948;2023-04-06T04:25:13;8.00;;;4.95;;
64832;SDS011;51290;45.060;38.948;2023-04-06T04:27:44;12.00;;;5.72;;
64832;SDS011;51290;45.060;38.948;2023-04-06T04:30:11;9.02;;;4.80;;
64832;SDS011;51290;45.060;38.948;2023-04-06T04:32:37;10.80;;;6.65;;
64832;SDS011;51290;45.060;38.948;2023-04-06T04:35:05;9.95;;;5.35;;
64832;SDS011;51290;45.060;38.948;2023-04-06T04:37:40;10.02;;;4.70;;
64832;SDS011;51290;45.060;38.948;2023-04-06T04:40:08;7.50;;;4.20;;
64832;SDS011;51290;45.060;38.948;2023-04-06T04:42:45;12.80;;;4.90;;
64832;SDS011;51290;45.060;38.948;2023-04-06T04:45:18;7.78;;;4.40;;
64832;SDS011;51290;45.060;38.948;2023-04-06T04:47:44;9.32;;;4.10;;
64832;SDS011;51290;45.060;38.948;2023-04-06T04:50:13;6.60;;;4.07;;
64832;SDS011;51290;45.060;38.948;2023-04-06T04:52:43;7.88;;;3.75;;
64832;SDS011;51290;45.060;38.948;2023-04-06T04:55:21;10.20;;;4.03;;
64832;SDS011;51290;45.060;38.948;2023-04-06T04:57:51;5.90;;;3.58;;
64832;SDS011;51290;45.060;38.948;2023-04-06T05:00:21;8.80;;;3.97;;
64832;SDS011;51290;45.060;38.948;2023-04-06T05:02:49;7.07;;;3.20;;
64832;SDS011;51290;45.060;38.948;2023-04-06T05:05:21;9.20;;;4.28;;
64832;SDS011;51290;45.060;38.948;2023-04-06T05:07:49;8.95;;;4.68;;
64832;SDS011;51290;45.060;38.948;2023-04-06T05:10:25;6.10;;;4.10;;
64832;SDS011;51290;45.060;38.948;2023-04-06T05:12:56;7.90;;;4.43;;
64832;SDS011;51290;45.060;38.948;2023-04-06T05:15:22;5.78;;;3.92;;
64832;SDS011;51290;45.060;38.948;2023-04-06T05:17:52;6.30;;;4.28;;
64832;SDS011;51290;45.060;38.948;2023-04-06T05:20:24;8.10;;;4.30;;
64832;SDS011;51290;45.060;38.948;2023-04-06T05:22:51;10.02;;;5.13;;
64832;SDS011;51290;45.060;38.948;2023-04-06T05:25:17;9.27;;;5.45;;
64832;SDS011;51290;45.060;38.948;2023-04-06T05:27:46;12.32;;;5.60;;
64832;SDS011;51290;45.060;38.948;2023-04-06T05:30:25;11.60;;;4.68;;
64832;SDS011;51290;45.060;38.948;2023-04-06T05:32:51;14.00;;;4.15;;
64832;SDS011;51290;45.060;38.948;2023-04-06T05:35:19;7.88;;;4.47;;
64832;SDS011;51290;45.060;38.948;2023-04-06T05:37:49;8.50;;;4.05;;
64832;SDS011;51290;45.060;38.948;2023-04-06T05:40:16;6.82;;;3.70;;
64832;SDS011;51290;45.060;38.948;2023-04-06T05:42:42;12.88;;;4.28;;
64832;SDS011;51290;45.060;38.948;2023-04-06T05:45:10;5.85;;;3.85;;
64832;SDS011;51290;45.060;38.948;2023-04-06T05:47:38;11.48;;;5.28;;
64832;SDS011;51290;45.060;38.948;2023-04-06T05:50:16;10.40;;;3.63;;
64832;SDS011;51290;45.060;38.948;2023-04-06T05:52:43;4.22;;;3.17;;
64832;SDS011;51290;45.060;38.948;2023-04-06T05:55:13;6.90;;;3.60;;
64832;SDS011;51290;45.060;38.948;2023-04-06T05:57:43;5.03;;;3.22;;
64832;SDS011;51290;45.060;38.948;2023-04-06T06:00:09;4.88;;;2.67;;
64832;SDS011;51290;45.060;38.948;2023-04-06T06:02:44;8.20;;;3.00;;
64832;SDS011;51290;45.060;38.948;2023-04-06T06:05:16;6.40;;;3.47;;
64832;SDS011;51290;45.060;38.948;2023-04-06T06:07:42;6.68;;;4.30;;
64832;SDS011;51290;45.060;38.948;2023-04-06T06:10:09;5.00;;;3.03;;
64832;SDS011;51290;45.060;38.948;2023-04-06T06:12:36;6.78;;;3.13;;
64832;SDS011;51290;45.060;38.948;2023-04-06T06:15:03;4.78;;;3.42;;
64832;SDS011;51290;45.060;38.948;2023-04-06T06:17:33;9.35;;;3.97;;
64832;SDS011;51290;45.060;38.948;2023-04-06T06:19:59;6.13;;;2.95;;
64832;SDS011;51290;45.060;38.948;2023-04-06T06:22:27;5.43;;;3.10;;
64832;SDS011;51290;45.060;38.948;2023-04-06T06:24:53;6.85;;;3.08;;
64832;SDS011;51290;45.060;38.948;2023-04-06T06:27:20;3.50;;;2.80;;
64832;SDS011;51290;45.060;38.948;2023-04-06T06:29:46;7.57;;;2.88;;
64832;SDS011;51290;45.060;38.948;2023-04-06T06:32:13;3.95;;;2.80;;
64832;SDS011;51290;45.060;38.948;2023-04-06T06:34:40;4.68;;;2.60;;
64832;SDS011;51290;45.060;38.948;2023-04-06T06:37:08;4.15;;;2.67;;
64832;SDS011;51290;45.060;38.948;2023-04-06T06:39:36;5.25;;;3.03;;
64832;SDS011;51290;45.060;38.948;2023-04-06T06:42:02;6.75;;;3.30;;
64832;SDS011;51290;45.060;38.948;2023-04-06T06:44:51;5.28;;;3.22;;
64832;SDS011;51290;45.060;38.948;2023-04-06T06:47:17;6.93;;;4.10;;
64832;SDS011;51290;45.060;38.948;2023-04-06T06:49:43;8.20;;;4.80;;
64832;SDS011;51290;45.060;38.948;2023-04-06T06:52:09;8.43;;;4.00;;
64832;SDS011;51290;45.060;38.948;2023-04-06T06:54:35;7.63;;;4.88;;
64832;SDS011;51290;45.060;38.948;2023-04-06T06:57:01;8.60;;;5.50;;
64832;SDS011;51290;45.060;38.948;2023-04-06T06:59:27;11.35;;;5.78;;
64832;SDS011;51290;45.060;38.948;2023-04-06T07:01:54;11.82;;;6.22;;
64832;SDS011;51290;45.060;38.948;2023-04-06T07:04:20;16.10;;;6.80;;
64832;SDS011;51290;45.060;38.948;2023-04-06T07:06:46;10.32;;;6.57;;
64832;SDS011;51290;45.060;38.948;2023-04-06T07:09:12;12.38;;;7.43;;
64832;SDS011;51290;45.060;38.948;2023-04-06T07:11:38;10.52;;;5.75;;
64832;SDS011;51290;45.060;38.948;2023-04-06T07:14:05;15.40;;;7.07;;
64832;SDS011;51290;45.060;38.948;2023-04-06T07:16:31;10.90;;;5.82;;
64832;SDS011;51290;45.060;38.948;2023-04-06T07:18:57;7.97;;;5.15;;
64832;SDS011;51290;45.060;38.948;2023-04-06T07:21:23;8.82;;;4.45;;
64832;SDS011;51290;45.060;38.948;2023-04-06T07:23:49;7.85;;;3.90;;
64832;SDS011;51290;45.060;38.948;2023-04-06T07:26:16;6.82;;;3.22;;
64832;SDS011;51290;45.060;38.948;2023-04-06T07:28:42;2.85;;;2.45;;
64832;SDS011;51290;45.060;38.948;2023-04-06T07:31:09;4.93;;;3.22;;
64832;SDS011;51290;45.060;38.948;2023-04-06T07:33:35;4.32;;;2.58;;
64832;SDS011;51290;45.060;38.948;2023-04-06T07:36:01;2.53;;;2.28;;
64832;SDS011;51290;45.060;38.948;2023-04-06T07:38:28;4.85;;;2.70;;
64832;SDS011;51290;45.060;38.948;2023-04-06T07:40:54;3.47;;;2.28;;
64832;SDS011;51290;45.060;38.948;2023-04-06T07:43:20;3.42;;;2.45;;
64832;SDS011;51290;45.060;38.948;2023-04-06T07:45:47;5.30;;;2.85;;
64832;SDS011;51290;45.060;38.948;2023-04-06T07:48:15;7.97;;;2.60;;
64832;SDS011;51290;45.060;38.948;2023-04-06T07:50:41;6.72;;;2.90;;
64832;SDS011;51290;45.060;38.948;2023-04-06T07:53:08;4.20;;;2.65;;
64832;SDS011;51290;45.060;38.948;2023-04-06T07:55:36;7.50;;;3.75;;
64832;SDS011;51290;45.060;38.948;2023-04-06T07:58:02;3.83;;;2.97;;
64832;SDS011;51290;45.060;38.948;2023-04-06T08:00:28;3.92;;;2.20;;
64832;SDS011;51290;45.060;38.948;2023-04-06T08:02:55;6.28;;;2.70;;
64832;SDS011;51290;45.060;38.948;2023-04-06T08:05:21;4.72;;;2.63;;
64832;SDS011;51290;45.060;38.948;2023-04-06T08:07:47;4.45;;;2.03;;
64832;SDS011;51290;45.060;38.948;2023-04-06T08:10:13;4.18;;;2.08;;
64832;SDS011;51290;45.060;38.948;2023-04-06T08:12:39;6.78;;;3.22;;
64832;SDS011;51290;45.060;38.948;2023-04-06T08:15:05;3.08;;;2.30;;
64832;SDS011;51290;45.060;38.948;2023-04-06T08:17:31;7.03;;;2.63;;
64832;SDS011;51290;45.060;38.948;2023-04-06T08:19:59;4.50;;;2.78;;
64832;SDS011;51290;45.060;38.948;2023-04-06T08:22:25;4.78;;;2.90;;
64832;SDS011;51290;45.060;38.948;2023-04-06T08:24:51;3.38;;;2.08;;
64832;SDS011;51290;45.060;38.948;2023-04-06T08:27:17;2.72;;;2.13;;
64832;SDS011;51290;45.060;38.948;2023-04-06T08:29:43;6.28;;;3.50;;
64832;SDS011;51290;45.060;38.948;2023-04-06T08:32:09;4.13;;;2.45;;
64832;SDS011;51290;45.060;38.948;2023-04-06T08:34:36;2.28;;;1.90;;
64832;SDS011;51290;45.060;38.948;2023-04-06T08:37:02;3.17;;;2.70;;
64832;SDS011;51290;45.060;38.948;2023-04-06T08:39:28;7.70;;;3.40;;
64832;SDS011;51290;45.060;38.948;2023-04-06T08:41:55;6.63;;;3.50;;
64832;SDS011;51290;45.060;38.948;2023-04-06T08:44:23;4.40;;;2.30;;
64832;SDS011;51290;45.060;38.948;2023-04-06T08:46:50;6.97;;;3.78;;
64832;SDS011;51290;45.060;38.948;2023-04-06T08:49:18;9.18;;;3.03;;
64832;SDS011;51290;45.060;38.948;2023-04-06T08:51:44;4.40;;;3.15;;
64832;SDS011;51290;45.060;38.948;2023-04-06T08:54:11;5.75;;;2.72;;
64832;SDS011;51290;45.060;38.948;2023-04-06T08:56:37;5.47;;;3.15;;
64832;SDS011;51290;45.060;38.948;2023-04-06T08:59:05;4.90;;;3.00;;
64832;SDS011;51290;45.060;38.948;2023-04-06T09:01:33;8.35;;;3.85;;
64832;SDS011;51290;45.060;38.948;2023-04-06T09:04:04;8.27;;;3.90;;
64832;SDS011;51290;45.060;38.948;2023-04-06T09:06:34;5.95;;;4.15;;
64832;SDS011;51290;45.060;38.948;2023-04-06T09:09:05;5.10;;;3.35;;
64832;SDS011;51290;45.060;38.948;2023-04-06T09:11:44;6.10;;;3.75;;
64832;SDS011;51290;45.060;38.948;2023-04-06T09:14:15;6.55;;;3.80;;
64832;SDS011;51290;45.060;38.948;2023-04-06T09:16:43;5.53;;;3.88;;
64832;SDS011;51290;45.060;38.948;2023-04-06T09:19:11;6.10;;;3.85;;
64832;SDS011;51290;45.060;38.948;2023-04-06T09:21:38;6.05;;;3.78;;
64832;SDS011;51290;45.060;38.948;2023-04-06T09:24:06;6.70;;;3.75;;
64832;SDS011;51290;45.060;38.948;2023-04-06T09:26:43;5.20;;;3.65;;
64832;SDS011;51290;45.060;38.948;2023-04-06T09:29:21;5.35;;;3.72;;
64832;SDS011;51290;45.060;38.948;2023-04-06T09:31:48;7.43;;;3.65;;
64832;SDS011;51290;45.060;38.948;2023-04-06T09:34:21;8.15;;;3.53;;
64832;SDS011;51290;45.060;38.948;2023-04-06T09:36:50;7.60;;;4.72;;
64832;SDS011;51290;45.060;38.948;2023-04-06T09:39:19;6.65;;;3.85;;
64832;SDS011;51290;45.060;38.948;2023-04-06T09:41:49;6.30;;;3.65;;
64832;SDS011;51290;45.060;38.948;2023-04-06T09:44:16;4.22;;;2.90;;
64832;SDS011;51290;45.060;38.948;2023-04-06T09:46:43;6.20;;;3.75;;
64832;SDS011;51290;45.060;38.948;2023-04-06T09:49:10;6.68;;;4.05;;
64832;SDS011;51290;45.060;38.948;2023-04-06T09:51:45;6.65;;;3.30;;
64832;SDS011;51290;45.060;38.948;2023-04-06T09:54:15;3.47;;;2.33;;
64832;SDS011;51290;45.060;38.948;2023-04-06T09:56:47;3.83;;;2.97;;
64832;SDS011;51290;45.060;38.948;2023-04-06T09:59:24;7.32;;;3.55;;
64832;SDS011;51290;45.060;38.948;2023-04-06T10:02:14;5.63;;;1.88;;
64832;SDS011;51290;45.060;38.948;2023-04-06T10:05:20;3.38;;;1.88;;
64832;SDS011;51290;45.060;38.948;2023-04-06T10:07:41;3.22;;;2.50;;
64832;SDS011;51290;45.060;38.948;2023-04-06T10:10:08;5.60;;;2.63;;
64832;SDS011;51290;45.060;38.948;2023-04-06T10:12:36;2.20;;;1.70;;
64832;SDS011;51290;45.060;38.948;2023-04-06T10:15:03;1.85;;;1.40;;
64832;SDS011;51290;45.060;38.948;2023-04-06T10:17:30;5.05;;;2.33;;
64832;SDS011;51290;45.060;38.948;2023-04-06T10:20:04;2.92;;;1.95;;
64832;SDS011;51290;45.060;38.948;2023-04-06T10:25:09;2.63;;;1.65;;
64832;SDS011;51290;45.060;38.948;2023-04-06T10:27:35;2.35;;;2.03;;
64832;SDS011;51290;45.060;38.948;2023-04-06T10:30:05;1.45;;;1.35;;
64832;SDS011;51290;45.060;38.948;2023-04-06T10:32:36;3.20;;;2.10;;
64832;SDS011;51290;45.060;38.948;2023-04-06T10:35:07;2.08;;;1.92;;
64832;SDS011;51290;45.060;38.948;2023-04-06T10:37:47;2.00;;;1.75;;
64832;SDS011;51290;45.060;38.948;2023-04-06T10:40:25;1.60;;;1.45;;
64832;SDS011;51290;45.060;38.948;2023-04-06T10:42:53;1.73;;;1.63;;
64832;SDS011;51290;45.060;38.948;2023-04-06T10:45:24;1.77;;;1.67;;
64832;SDS011;51290;45.060;38.948;2023-04-06T10:47:54;4.38;;;2.08;;
64832;SDS011;51290;45.060;38.948;2023-04-06T10:50:20;2.15;;;1.85;;
64832;SDS011;51290;45.060;38.948;2023-04-06T10:52:47;4.28;;;2.70;;
64832;SDS011;51290;45.060;38.948;2023-04-06T10:55:28;7.10;;;2.90;;
64832;SDS011;51290;45.060;38.948;2023-04-06T10:57:55;2.53;;;2.05;;
64832;SDS011;51290;45.060;38.948;2023-04-06T11:00:21;3.42;;;2.58;;
64832;SDS011;51290;45.060;38.948;2023-04-06T11:02:47;3.85;;;2.72;;
64832;SDS011;51290;45.060;38.948;2023-04-06T11:05:14;3.97;;;2.50;;
64832;SDS011;51290;45.060;38.948;2023-04-06T11:07:40;4.03;;;2.60;;
64832;SDS011;51290;45.060;38.948;2023-04-06T11:10:07;4.15;;;2.47;;
64832;SDS011;51290;45.060;38.948;2023-04-06T11:12:34;6.07;;;3.30;;
64832;SDS011;51290;45.060;38.948;2023-04-06T11:15:00;5.47;;;3.25;;
64832;SDS011;51290;45.060;38.948;2023-04-06T11:17:35;4.72;;;3.20;;
64832;SDS011;51290;45.060;38.948;2023-04-06T11:20:02;4.53;;;2.85;;
64832;SDS011;51290;45.060;38.948;2023-04-06T11:22:30;4.25;;;2.50;;
64832;SDS011;51290;45.060;38.948;2023-04-06T11:25:06;4.80;;;2.92;;
64832;SDS011;51290;45.060;38.948;2023-04-06T11:27:35;3.65;;;2.53;;
64832;SDS011;51290;45.060;38.948;2023-04-06T11:30:02;7.30;;;2.97;;
64832;SDS011;51290;45.060;38.948;2023-04-06T11:32:40;5.05;;;2.70;;
64832;SDS011;51290;45.060;38.948;2023-04-06T11:35:11;3.03;;;1.63;;
64832;SDS011;51290;45.060;38.948;2023-04-06T11:37:50;5.18;;;2.22;;
64832;SDS011;51290;45.060;38.948;2023-04-06T11:40:20;3.42;;;2.40;;
64832;SDS011;51290;45.060;38.948;2023-04-06T11:42:54;3.50;;;2.63;;
64832;SDS011;51290;45.060;38.948;2023-04-06T11:45:21;2.10;;;1.90;;
64832;SDS011;51290;45.060;38.948;2023-04-06T11:47:58;3.90;;;2.33;;
64832;SDS011;51290;45.060;38.948;2023-04-06T11:50:25;2.30;;;2.13;;
64832;SDS011;51290;45.060;38.948;2023-04-06T11:52:58;3.08;;;2.22;;
64832;SDS011;51290;45.060;38.948;2023-04-06T11:55:26;6.18;;;2.03;;
64832;SDS011;51290;45.060;38.948;2023-04-06T11:57:52;3.92;;;2.60;;
64832;SDS011;51290;45.060;38.948;2023-04-06T12:00:18;4.68;;;2.40;;
64832;SDS011;51290;45.060;38.948;2023-04-06T12:02:47;3.03;;;2.40;;
64832;SDS011;51290;45.060;38.948;2023-04-06T12:05:14;2.63;;;2.05;;
64832;SDS011;51290;45.060;38.948;2023-04-06T12:07:40;2.75;;;1.92;;
64832;SDS011;51290;45.060;38.948;2023-04-06T12:10:06;3.53;;;2.38;;
64832;SDS011;51290;45.060;38.948;2023-04-06T12:12:33;4.35;;;2.63;;
64832;SDS011;51290;45.060;38.948;2023-04-06T12:14:59;4.03;;;2.13;;
64832;SDS011;51290;45.060;38.948;2023-04-06T12:17:25;6.38;;;3.20;;
64832;SDS011;51290;45.060;38.948;2023-04-06T12:19:51;3.10;;;2.63;;
64832;SDS011;51290;45.060;38.948;2023-04-06T12:22:20;5.07;;;2.58;;
64832;SDS011;51290;45.060;38.948;2023-04-06T12:24:46;4.88;;;2.53;;
64832;SDS011;51290;45.060;38.948;2023-04-06T12:27:12;3.70;;;2.15;;
64832;SDS011;51290;45.060;38.948;2023-04-06T12:29:38;3.22;;;2.38;;
64832;SDS011;51290;45.060;38.948;2023-04-06T12:32:04;2.67;;;2.05;;
64832;SDS011;51290;45.060;38.948;2023-04-06T12:34:31;3.00;;;2.50;;
64832;SDS011;51290;45.060;38.948;2023-04-06T12:36:57;3.30;;;2.85;;
64832;SDS011;51290;45.060;38.948;2023-04-06T12:39:23;4.97;;;2.65;;
64832;SDS011;51290;45.060;38.948;2023-04-06T12:41:49;7.72;;;2.72;;
64832;SDS011;51290;45.060;38.948;2023-04-06T12:44:15;3.90;;;2.70;;
64832;SDS011;51290;45.060;38.948;2023-04-06T12:46:41;4.00;;;2.53;;
64832;SDS011;51290;45.060;38.948;2023-04-06T12:49:08;4.50;;;3.20;;
64832;SDS011;51290;45.060;38.948;2023-04-06T12:51:34;3.63;;;2.50;;
64832;SDS011;51290;45.060;38.948;2023-04-06T12:54:00;7.95;;;3.70;;
64832;SDS011;51290;45.060;38.948;2023-04-06T12:56:26;3.63;;;2.42;;
64832;SDS011;51290;45.060;38.948;2023-04-06T12:58:53;4.97;;;2.90;;
64832;SDS011;51290;45.060;38.948;2023-04-06T13:01:19;7.68;;;3.67;;
64832;SDS011;51290;45.060;38.948;2023-04-06T13:03:45;4.72;;;2.70;;
64832;SDS011;51290;45.060;38.948;2023-04-06T13:06:11;4.80;;;2.80;;
64832;SDS011;51290;45.060;38.948;2023-04-06T13:08:39;4.95;;;3.35;;
64832;SDS011;51290;45.060;38.948;2023-04-06T13:11:05;2.75;;;2.30;;
64832;SDS011;51290;45.060;38.948;2023-04-06T13:13:34;3.97;;;2.38;;
64832;SDS011;51290;45.060;38.948;2023-04-06T13:16:01;4.53;;;3.45;;
64832;SDS011;51290;45.060;38.948;2023-04-06T13:18:30;5.25;;;3.17;;
64832;SDS011;51290;45.060;38.948;2023-04-06T13:20:57;9.07;;;4.22;;
64832;SDS011;51290;45.060;38.948;2023-04-06T13:23:25;5.28;;;3.35;;
64832;SDS011;51290;45.060;38.948;2023-04-06T13:25:58;6.85;;;3.72;;
64832;SDS011;51290;45.060;38.948;2023-04-06T13:28:24;7.95;;;3.60;;
64832;SDS011;51290;45.060;38.948;2023-04-06T13:30:51;5.45;;;3.38;;
64832;SDS011;51290;45.060;38.948;2023-04-06T13:33:17;10.88;;;4.47;;
64832;SDS011;51290;45.060;38.948;2023-04-06T13:35:47;7.88;;;3.65;;
64832;SDS011;51290;45.060;38.948;2023-04-06T13:38:13;5.97;;;3.92;;
64832;SDS011;51290;45.060;38.948;2023-04-06T13:40:40;4.82;;;2.95;;
64832;SDS011;51290;45.060;38.948;2023-04-06T13:43:06;4.60;;;3.42;;
64832;SDS011;51290;45.060;38.948;2023-04-06T13:45:32;6.38;;;3.42;;
64832;SDS011;51290;45.060;38.948;2023-04-06T13:47:58;7.55;;;3.50;;
64832;SDS011;51290;45.060;38.948;2023-04-06T13:50:28;6.35;;;3.50;;
64832;SDS011;51290;45.060;38.948;2023-04-06T13:52:55;4.38;;;3.22;;
64832;SDS011;51290;45.060;38.948;2023-04-06T13:55:21;7.85;;;3.67;;
64832;SDS011;51290;45.060;38.948;2023-04-06T13:57:50;6.80;;;4.18;;
64832;SDS011;51290;45.060;38.948;2023-04-06T14:00:16;6.50;;;3.40;;
64832;SDS011;51290;45.060;38.948;2023-04-06T14:02:43;3.25;;;2.67;;
64832;SDS011;51290;45.060;38.948;2023-04-06T14:05:12;4.95;;;2.92;;
64832;SDS011;51290;45.060;38.948;2023-04-06T14:07:38;5.65;;;3.63;;
64832;SDS011;51290;45.060;38.948;2023-04-06T14:10:05;5.68;;;3.33;;
64832;SDS011;51290;45.060;38.948;2023-04-06T14:12:39;5.15;;;3.08;;
64832;SDS011;51290;45.060;38.948;2023-04-06T14:15:10;4.53;;;3.05;;
64832;SDS011;51290;45.060;38.948;2023-04-06T14:17:37;3.25;;;2.63;;
64832;SDS011;51290;45.060;38.948;2023-04-06T14:20:05;5.13;;;2.83;;
64832;SDS011;51290;45.060;38.948;2023-04-06T14:22:31;6.53;;;3.00;;
64832;SDS011;51290;45.060;38.948;2023-04-06T14:24:58;7.63;;;3.58;;
64832;SDS011;51290;45.060;38.948;2023-04-06T14:27:24;5.53;;;2.80;;
64832;SDS011;51290;45.060;38.948;2023-04-06T14:29:50;3.60;;;2.40;;
64832;SDS011;51290;45.060;38.948;2023-04-06T14:32:16;4.90;;;3.20;;
64832;SDS011;51290;45.060;38.948;2023-04-06T14:34:42;4.78;;;2.83;;
64832;SDS011;51290;45.060;38.948;2023-04-06T14:37:08;5.50;;;3.42;;
64832;SDS011;51290;45.060;38.948;2023-04-06T14:39:34;5.28;;;2.85;;
64832;SDS011;51290;45.060;38.948;2023-04-06T14:42:01;9.68;;;3.55;;
64832;SDS011;51290;45.060;38.948;2023-04-06T14:44:26;5.05;;;2.58;;
64832;SDS011;51290;45.060;38.948;2023-04-06T14:46:52;7.88;;;3.72;;